F62 weather

Hayfork Airport
Hayfork, California, United States

Public forecast

Using degrees Fahrenheit for public forecast. Weather courtesy of forecast.io.

Closest aviation weather report (METAR) to Hayfork Airport

Closest report is Lonnie Pool Field Weaverville Airport, 16.8 nm (31.1 km) NE. Retrieved 2019/10/22 18:35 UTC (5 minutes ago):

KO54 221835Z AUTO 00000KT 10SM CLR 12/08 A3039 RMK AO1

Closest aviation forecast (TAF) to Hayfork Airport

Closest forecast is Redding Municipal Airport, 40.6 nm (75.3 km) E. Retrieved 2019/10/22 18:36 UTC (4 minutes ago):

TAF KRDD 221733Z 2218/2318 35010KT P6SM FEW250 FM231200 36012G24KT P6SM SKC